Time;durP1;ratioP1;P1;durP2;ratioP2;P2;SDS_P1;SDS_P2;PMS_P1;PMS_P2;Temp;Humidity;BMP_temperature;BMP_pressure;BME280_temperature;BME280_humidity;BME280_pressure;Samples;Min_cycle;Max_cycle;Signal;HPM_P1;HPM_P2
2022/11/02 00:02:12;;;;;;;6.97;2.00;;;12.80;81.40;;;;;;5018308;28;20049;-75
2022/11/02 00:04:38;;;;;;;9.60;2.30;;;12.70;81.00;;;;;;5013970;28;20074;-76
2022/11/02 00:07:04;;;;;;;10.68;2.45;;;12.70;80.70;;;;;;5014397;28;20034;-74
2022/11/02 00:09:29;;;;;;;10.35;2.28;;;12.70;80.40;;;;;;5018971;28;20143;-75
2022/11/02 00:11:55;;;;;;;12.15;2.83;;;12.60;80.40;;;;;;5020720;28;20443;-75
2022/11/02 00:14:21;;;;;;;8.48;2.50;;;12.60;80.00;;;;;;5019104;28;20131;-74
2022/11/02 00:16:47;;;;;;;11.90;2.30;;;12.60;79.90;;;;;;5021302;28;20029;-74
2022/11/02 00:19:13;;;;;;;9.35;2.20;;;12.60;80.10;;;;;;5019803;28;20036;-75
2022/11/02 00:21:40;;;;;;;13.27;2.60;;;12.60;79.80;;;;;;5015489;28;20497;-75
2022/11/02 00:24:07;;;;;;;9.35;2.40;;;12.60;79.30;;;;;;5011786;28;20065;-75
2022/11/02 00:26:35;;;;;;;12.48;2.25;;;12.60;79.30;;;;;;5018983;28;20521;-74
2022/11/02 00:29:02;;;;;;;11.32;2.28;;;12.50;79.30;;;;;;5015815;28;20041;-75
2022/11/02 00:31:28;;;;;;;11.77;2.50;;;12.50;79.20;;;;;;5019313;28;20505;-75
2022/11/02 00:33:53;;;;;;;12.63;2.70;;;12.50;79.10;;;;;;5020657;28;20045;-75
2022/11/02 00:36:19;;;;;;;8.95;2.03;;;12.50;79.00;;;;;;5017726;28;20033;-75
2022/11/02 00:38:45;;;;;;;12.07;2.50;;;12.50;78.80;;;;;;5019398;28;20117;-76
2022/11/02 00:41:11;;;;;;;10.40;2.22;;;12.50;78.60;;;;;;5018223;28;20128;-75
2022/11/02 00:43:37;;;;;;;9.10;2.72;;;12.50;78.60;;;;;;5019017;28;20120;-75
2022/11/02 00:46:03;;;;;;;10.75;2.47;;;12.40;78.70;;;;;;5019577;28;20426;-75
2022/11/02 00:48:29;;;;;;;12.18;2.67;;;12.40;78.90;;;;;;5010663;28;20034;-75
2022/11/02 00:50:55;;;;;;;11.82;3.03;;;12.40;78.90;;;;;;5020489;28;20090;-75
2022/11/02 00:53:20;;;;;;;13.52;2.65;;;12.40;78.70;;;;;;5013848;28;20124;-75
2022/11/02 00:55:46;;;;;;;13.18;2.53;;;12.50;78.50;;;;;;5021320;28;20409;-75
2022/11/02 00:58:12;;;;;;;11.32;2.17;;;12.50;78.10;;;;;;5020886;28;20065;-75
2022/11/02 01:00:38;;;;;;;12.98;2.83;;;12.50;78.20;;;;;;5021816;28;20025;-75
2022/11/02 01:03:03;;;;;;;12.73;2.80;;;12.40;78.50;;;;;;5007504;28;20033;-74
2022/11/02 01:05:29;;;;;;;10.00;2.72;;;12.40;78.60;;;;;;5020127;28;20498;-75
2022/11/02 01:07:55;;;;;;;10.60;2.40;;;12.30;78.70;;;;;;5018242;28;20454;-75
2022/11/02 01:10:22;;;;;;;10.35;2.40;;;12.30;78.90;;;;;;5017611;28;20512;-73
2022/11/02 01:12:47;;;;;;;10.30;2.60;;;12.30;79.20;;;;;;5015347;28;20512;-74
2022/11/02 01:15:13;;;;;;;14.60;3.05;;;12.30;79.30;;;;;;5017910;28;20045;-73
2022/11/02 01:17:39;;;;;;;12.60;2.67;;;12.20;79.30;;;;;;5018547;28;20033;-75
2022/11/02 01:20:05;;;;;;;11.77;2.38;;;12.20;79.10;;;;;;5014126;28;20440;-75
2022/11/02 01:22:31;;;;;;;14.63;3.08;;;12.20;79.10;;;;;;5012518;28;20103;-74
2022/11/02 01:24:57;;;;;;;16.52;2.95;;;12.30;79.00;;;;;;5014523;28;20036;-74
2022/11/02 01:27:22;;;;;;;14.48;3.58;;;12.30;78.90;;;;;;5017069;28;20041;-75
2022/11/02 01:29:48;;;;;;;14.10;3.00;;;12.40;78.80;;;;;;5016893;28;20497;-74
2022/11/02 01:32:14;;;;;;;14.63;3.28;;;12.40;78.50;;;;;;5012521;28;20060;-73
2022/11/02 01:34:39;;;;;;;18.02;3.38;;;12.40;78.90;;;;;;5016027;28;20533;-74
2022/11/02 01:37:05;;;;;;;11.68;2.60;;;12.30;79.40;;;;;;5015334;28;20079;-74
2022/11/02 01:39:30;;;;;;;16.75;3.05;;;12.20;79.70;;;;;;5014294;28;20083;-74
2022/11/02 01:41:56;;;;;;;12.43;2.80;;;12.20;79.70;;;;;;5015116;28;20052;-74
2022/11/02 01:44:30;;;;;;;16.52;3.13;;;12.10;79.90;;;;;;5018653;28;20025;-75
2022/11/02 01:47:05;;;;;;;13.23;3.33;;;12.10;79.90;;;;;;5018160;28;20141;-74
2022/11/02 01:49:35;;;;;;;14.48;3.67;;;12.10;79.70;;;;;;5013436;28;20255;-73
2022/11/02 01:52:24;;;;;;;13.70;2.75;;;12.10;79.70;;;;;;5016284;28;20079;-75
2022/11/02 01:54:58;;;;;;;17.45;3.28;;;12.10;79.40;;;;;;5016957;28;20115;-74
2022/11/02 01:57:26;;;;;;;10.68;2.85;;;12.10;79.40;;;;;;5017755;28;20069;-75
2022/11/02 01:59:59;;;;;;;17.90;3.67;;;12.10;79.60;;;;;;5022375;28;20541;-74
2022/11/02 02:02:26;;;;;;;13.05;3.35;;;12.10;79.40;;;;;;5015695;28;20050;-74
2022/11/02 02:05:14;;;;;;;16.88;3.45;;;12.10;79.40;;;;;;5013763;28;20037;-73
2022/11/02 02:07:40;;;;;;;17.50;3.63;;;12.10;79.60;;;;;;5017315;28;20409;-73
2022/11/02 02:10:07;;;;;;;13.32;3.67;;;12.10;79.70;;;;;;5016071;28;20254;-74
2022/11/02 02:12:35;;;;;;;15.68;3.00;;;12.10;79.70;;;;;;5016654;28;20117;-75
2022/11/02 02:15:01;;;;;;;13.93;2.75;;;12.30;79.50;;;;;;5017380;28;20330;-75
2022/11/02 02:17:26;;;;;;;18.05;2.83;;;12.30;79.90;;;;;;5017990;28;20620;-74
2022/11/02 02:20:11;;;;;;;16.90;3.72;;;12.30;80.00;;;;;;5018211;28;20092;-73
2022/11/02 02:22:54;;;;;;;14.80;2.80;;;12.40;80.60;;;;;;5015558;28;20044;-74
2022/11/02 02:26:08;;;;;;;20.92;3.55;;;12.40;80.70;;;;;;5014834;28;20034;-74
2022/11/02 02:28:58;;;;;;;15.05;3.50;;;12.20;80.90;;;;;;5010546;28;20096;-74
2022/11/02 02:31:42;;;;;;;17.33;3.10;;;12.20;81.20;;;;;;5025872;28;20049;-75
2022/11/02 02:34:15;;;;;;;16.85;3.60;;;12.30;81.00;;;;;;5018934;28;20444;-75
2022/11/02 02:36:51;;;;;;;18.05;3.85;;;12.20;81.00;;;;;;5022390;28;20044;-74
2022/11/02 02:39:36;;;;;;;20.27;2.97;;;12.20;81.10;;;;;;5021165;28;20041;-75
2022/11/02 02:42:34;;;;;;;18.10;2.83;;;12.20;81.00;;;;;;5011731;28;20387;-74
2022/11/02 02:45:08;;;;;;;16.83;3.47;;;12.20;80.60;;;;;;5019088;28;20047;-74
2022/11/02 02:47:36;;;;;;;15.73;3.53;;;12.20;80.50;;;;;;5021251;28;20494;-75
2022/11/02 02:50:20;;;;;;;14.10;2.80;;;12.20;80.40;;;;;;5020884;28;20516;-74
2022/11/02 02:52:49;;;;;;;15.07;3.47;;;12.20;80.60;;;;;;5019271;28;20470;-74
2022/11/02 02:55:23;;;;;;;17.67;3.10;;;12.20;80.50;;;;;;5015711;28;20038;-74
2022/11/02 02:57:50;;;;;;;19.23;3.42;;;12.30;80.30;;;;;;5017694;28;20121;-75
2022/11/02 03:00:17;;;;;;;19.08;3.85;;;12.20;81.20;;;;;;5014376;28;20033;-74
2022/11/02 03:02:59;;;;;;;19.23;3.65;;;12.10;82.00;;;;;;5020913;28;20041;-74
2022/11/02 03:05:30;;;;;;;15.95;3.28;;;12.10;82.60;;;;;;5022984;28;20485;-73
2022/11/02 03:07:59;;;;;;;16.27;3.25;;;12.00;83.20;;;;;;5018994;28;20021;-75
2022/11/02 03:10:49;;;;;;;18.60;3.90;;;11.90;83.30;;;;;;5026262;28;20049;-75
2022/11/02 03:13:35;;;;;;;16.30;3.15;;;11.90;83.50;;;;;;5018376;28;20457;-74
2022/11/02 03:16:09;;;;;;;18.95;3.50;;;11.70;83.50;;;;;;5015891;28;20121;-73
2022/11/02 03:18:51;;;;;;;18.02;3.55;;;11.80;83.60;;;;;;5013133;28;20120;-73
2022/11/02 03:21:17;;;;;;;15.43;3.53;;;11.70;83.50;;;;;;5018980;28;20497;-74
2022/11/02 03:24:03;;;;;;;15.00;3.28;;;11.80;83.70;;;;;;5018994;28;20092;-74
2022/11/02 03:26:46;;;;;;;14.70;3.47;;;11.80;83.50;;;;;;5018557;28;20033;-75
2022/11/02 03:29:26;;;;;;;15.32;3.13;;;11.80;83.70;;;;;;5017458;28;20113;-75
2022/11/02 03:32:00;;;;;;;18.70;3.65;;;11.80;83.70;;;;;;5021081;28;20470;-74
2022/11/02 03:34:51;;;;;;;13.60;2.95;;;11.70;83.80;;;;;;5017958;28;20042;-74
2022/11/02 03:37:26;;;;;;;15.00;3.20;;;11.60;84.10;;;;;;5019959;28;20068;-74
2022/11/02 03:39:57;;;;;;;17.48;3.70;;;11.60;84.20;;;;;;5019566;28;20038;-74
2022/11/02 03:42:25;;;;;;;14.20;3.08;;;11.60;84.60;;;;;;5017574;28;20061;-74
2022/11/02 03:44:58;;;;;;;16.38;3.33;;;11.60;84.50;;;;;;5021259;28;20041;-74
2022/11/02 03:47:25;;;;;;;15.32;3.85;;;11.60;84.40;;;;;;5016148;28;20044;-73
2022/11/02 03:49:54;;;;;;;20.65;3.63;;;11.50;84.50;;;;;;5020205;28;20029;-74
2022/11/02 03:52:24;;;;;;;16.23;3.17;;;11.40;84.70;;;;;;5017992;28;20519;-75
2022/11/02 03:55:13;;;;;;;16.42;3.03;;;11.40;84.90;;;;;;5021287;28;20048;-74
2022/11/02 03:57:44;;;;;;;16.48;3.40;;;11.40;84.90;;;;;;5021870;28;20474;-73
2022/11/02 04:00:13;;;;;;;20.65;3.40;;;11.40;85.00;;;;;;5015776;28;20034;-74
2022/11/02 04:02:43;;;;;;;15.80;3.00;;;11.40;85.00;;;;;;5019357;28;20057;-74
2022/11/02 04:05:09;;;;;;;14.60;3.50;;;11.30;85.20;;;;;;5020268;28;20112;-75
2022/11/02 04:08:21;;;;;;;14.90;2.70;;;11.30;85.10;;;;;;5019262;28;20033;-74
2022/11/02 04:10:22;;;;;;;17.83;3.40;;;11.30;85.10;;;;;;5011695;28;20388;-74
2022/11/02 04:15:32;;;;;;;15.00;3.07;;;11.20;85.50;;;;;;5022525;28;20102;-74
2022/11/02 04:20:42;;;;;;;20.25;3.35;;;11.20;85.40;;;;;;5020014;28;20048;-75
2022/11/02 04:25:53;;;;;;;15.38;3.13;;;11.10;85.50;;;;;;5017784;28;20140;-74
2022/11/02 04:28:19;;;;;;;13.20;2.72;;;11.10;85.50;;;;;;5015240;28;20121;-74
2022/11/02 04:30:44;;;;;;;17.38;3.70;;;11.10;85.50;;;;;;5020490;28;20129;-75
2022/11/02 04:35:54;;;;;;;17.00;4.13;;;11.10;85.60;;;;;;5017088;28;20064;-74
2022/11/02 04:43:49;;;;;;;16.67;3.40;;;10.90;85.70;;;;;;5020498;28;20394;-74
2022/11/02 04:46:15;;;;;;;14.68;3.67;;;10.90;85.80;;;;;;5020069;28;20037;-73
2022/11/02 04:48:40;;;;;;;16.77;3.83;;;10.90;85.70;;;;;;5020036;28;20346;-75
2022/11/02 04:51:06;;;;;;;16.27;2.83;;;10.90;85.60;;;;;;5015851;28;20049;-73
2022/11/02 04:53:32;;;;;;;11.02;2.10;;;10.90;85.70;;;;;;5018474;28;20394;-74
2022/11/02 04:55:57;;;;;;;13.15;2.58;;;10.80;85.40;;;;;;5020053;28;20029;-74
2022/11/02 04:58:23;;;;;;;12.60;2.80;;;10.80;85.50;;;;;;5019862;28;20083;-73
2022/11/02 05:00:48;;;;;;;15.38;2.65;;;10.80;85.50;;;;;;5019281;28;20039;-74
2022/11/02 05:03:14;;;;;;;14.38;2.90;;;10.80;85.50;;;;;;5017363;28;20381;-74
2022/11/02 05:05:39;;;;;;;11.13;2.30;;;10.70;85.50;;;;;;5020165;28;20033;-74
2022/11/02 05:08:05;;;;;;;14.43;3.05;;;10.70;85.50;;;;;;5018571;28;20120;-73
2022/11/02 05:10:31;;;;;;;11.88;3.10;;;10.70;85.60;;;;;;5018959;28;20669;-74
2022/11/02 05:12:57;;;;;;;13.52;2.83;;;10.60;85.50;;;;;;5012859;28;20124;-73
2022/11/02 05:15:23;;;;;;;21.73;3.20;;;10.60;85.50;;;;;;5014368;28;20041;-73
2022/11/02 05:17:48;;;;;;;16.13;3.75;;;10.60;85.50;;;;;;5019775;28;20036;-74
2022/11/02 05:20:14;;;;;;;13.48;2.72;;;10.60;85.60;;;;;;5018374;28;20545;-74
2022/11/02 05:22:43;;;;;;;15.40;3.95;;;10.60;85.80;;;;;;5016407;28;20045;-73
2022/11/02 05:25:12;;;;;;;15.35;2.60;;;10.60;85.80;;;;;;5015458;28;20394;-74
2022/11/02 05:27:38;;;;;;;16.38;3.13;;;10.50;85.90;;;;;;5018439;28;20064;-74
2022/11/02 05:30:04;;;;;;;17.65;3.28;;;10.50;85.90;;;;;;5018151;28;20412;-74
2022/11/02 05:32:30;;;;;;;10.27;2.60;;;10.50;85.80;;;;;;5017487;28;20038;-74
2022/11/02 05:34:55;;;;;;;16.10;2.70;;;10.50;85.90;;;;;;5016025;28;20049;-74
2022/11/02 05:37:21;;;;;;;10.82;3.05;;;10.40;85.90;;;;;;5017482;28;20065;-72
2022/11/02 05:39:47;;;;;;;15.60;3.13;;;10.40;86.10;;;;;;5014584;28;20034;-73
2022/11/02 05:42:12;;;;;;;11.02;3.00;;;10.40;86.20;;;;;;5017638;28;20069;-74
2022/11/02 05:44:38;;;;;;;12.52;2.72;;;10.40;86.40;;;;;;5019730;28;20067;-73
2022/11/02 05:47:04;;;;;;;13.10;2.78;;;10.40;86.30;;;;;;5017422;28;20018;-74
2022/11/02 05:49:30;;;;;;;14.77;2.90;;;10.30;86.30;;;;;;5017851;28;20342;-73
2022/11/02 05:51:55;;;;;;;15.05;2.85;;;10.20;86.60;;;;;;5015338;28;20048;-73
2022/11/02 05:54:21;;;;;;;15.23;3.60;;;10.20;86.70;;;;;;5016092;28;20133;-74
2022/11/02 05:56:46;;;;;;;14.05;2.97;;;10.30;87.00;;;;;;5018427;28;20180;-73
2022/11/02 05:59:12;;;;;;;16.05;3.45;;;10.20;87.20;;;;;;5019208;28;20197;-74
2022/11/02 06:01:38;;;;;;;15.68;3.33;;;10.10;87.50;;;;;;5018756;28;20037;-73
2022/11/02 06:04:04;;;;;;;12.20;2.60;;;10.20;87.80;;;;;;5014626;28;20033;-73
2022/11/02 06:06:30;;;;;;;17.67;4.20;;;10.10;87.70;;;;;;5021580;28;20292;-74
2022/11/02 06:08:58;;;;;;;13.13;3.38;;;10.10;87.90;;;;;;5021131;28;20493;-73
2022/11/02 06:11:24;;;;;;;13.80;3.30;;;10.10;88.10;;;;;;5022892;28;20064;-73
2022/11/02 06:13:50;;;;;;;17.45;3.60;;;10.10;88.10;;;;;;5022033;28;20773;-74
2022/11/02 06:16:16;;;;;;;19.77;4.53;;;10.10;88.20;;;;;;5022441;28;20042;-74
2022/11/02 06:18:42;;;;;;;13.85;3.20;;;10.10;88.30;;;;;;5019114;28;20041;-74
2022/11/02 06:21:09;;;;;;;19.38;4.20;;;10.10;88.50;;;;;;5015050;28;20077;-74
2022/11/02 06:23:36;;;;;;;17.70;3.47;;;10.00;88.60;;;;;;5020096;28;20110;-73
2022/11/02 06:26:02;;;;;;;17.00;3.75;;;10.10;88.80;;;;;;5013278;28;20083;-74
2022/11/02 06:28:29;;;;;;;17.00;3.70;;;10.00;88.80;;;;;;5018722;28;20065;-74
2022/11/02 06:30:55;;;;;;;20.33;4.53;;;10.00;88.80;;;;;;5020733;28;21252;-73
2022/11/02 06:33:21;;;;;;;16.13;3.63;;;9.90;89.00;;;;;;5020718;28;20224;-74
2022/11/02 06:35:49;;;;;;;19.25;4.15;;;10.00;89.10;;;;;;5020530;28;20599;-74
2022/11/02 06:38:15;;;;;;;16.55;3.80;;;10.00;89.30;;;;;;5020359;28;20049;-74
2022/11/02 06:40:41;;;;;;;20.02;4.75;;;10.00;89.20;;;;;;5022736;28;20037;-73
2022/11/02 06:43:07;;;;;;;18.05;4.80;;;10.00;89.20;;;;;;5017382;28;20544;-73
2022/11/02 06:45:33;;;;;;;16.58;4.05;;;9.90;89.30;;;;;;5022729;28;20034;-73
2022/11/02 06:47:58;;;;;;;15.63;3.60;;;10.00;89.40;;;;;;5021391;28;20038;-74
2022/11/02 06:50:24;;;;;;;16.92;4.00;;;10.00;89.40;;;;;;5021506;28;20064;-73
2022/11/02 06:52:50;;;;;;;18.80;3.80;;;9.90;89.50;;;;;;5019811;28;20541;-73
2022/11/02 06:55:17;;;;;;;19.38;3.97;;;9.90;89.60;;;;;;5021638;28;20033;-74
2022/11/02 06:57:43;;;;;;;21.15;5.10;;;10.00;89.60;;;;;;5022308;28;20459;-73
2022/11/02 07:00:12;;;;;;;23.98;4.03;;;10.00;89.70;;;;;;5020490;28;20116;-74
2022/11/02 07:02:40;;;;;;;22.23;4.32;;;10.00;89.60;;;;;;5012436;28;20125;-74
2022/11/02 07:05:06;;;;;;;22.83;4.38;;;10.00;89.70;;;;;;5022386;28;20053;-74
2022/11/02 07:07:32;;;;;;;20.58;4.07;;;10.10;89.60;;;;;;5016673;28;20693;-74
2022/11/02 07:09:58;;;;;;;21.08;4.72;;;10.10;89.70;;;;;;5015008;28;20080;-75
2022/11/02 07:12:24;;;;;;;24.80;5.18;;;10.20;89.60;;;;;;5020786;28;20107;-73
2022/11/02 07:14:49;;;;;;;24.02;5.28;;;10.30;89.50;;;;;;5019664;28;20584;-74
2022/11/02 07:17:15;;;;;;;21.65;4.75;;;10.30;89.50;;;;;;5018816;28;20603;-75
2022/11/02 07:19:40;;;;;;;20.75;4.53;;;10.40;89.40;;;;;;5015756;28;20133;-74
2022/11/02 07:22:08;;;;;;;25.55;5.15;;;10.60;89.30;;;;;;5019869;28;20771;-74
2022/11/02 07:24:33;;;;;;;20.77;4.80;;;10.60;89.00;;;;;;5020165;28;20116;-75
2022/11/02 07:26:59;;;;;;;22.60;5.05;;;10.60;88.90;;;;;;5017560;28;20124;-75
2022/11/02 07:29:24;;;;;;;21.38;4.55;;;10.70;88.70;;;;;;5013281;28;20042;-75
2022/11/02 07:31:50;;;;;;;20.40;5.20;;;10.80;88.60;;;;;;5018139;28;20037;-74
2022/11/02 07:34:16;;;;;;;21.27;5.45;;;10.80;88.40;;;;;;5011687;28;20482;-74
2022/11/02 07:36:42;;;;;;;22.55;5.25;;;10.80;88.30;;;;;;5022316;28;20536;-75
2022/11/02 07:39:08;;;;;;;24.05;5.10;;;10.90;88.20;;;;;;5017857;28;20107;-75
2022/11/02 07:41:34;;;;;;;20.10;5.50;;;10.90;88.20;;;;;;5019435;28;20096;-75
2022/11/02 07:44:00;;;;;;;19.08;3.70;;;11.00;88.10;;;;;;5018603;28;20406;-75
2022/11/02 07:46:26;;;;;;;18.42;4.05;;;11.00;88.00;;;;;;5012806;28;22495;-77
2022/11/02 07:48:52;;;;;;;18.02;4.47;;;11.00;88.10;;;;;;5015930;28;20393;-76
2022/11/02 07:51:17;;;;;;;21.60;5.38;;;11.00;88.00;;;;;;5016335;28;20048;-76
2022/11/02 07:53:43;;;;;;;20.30;5.43;;;10.90;88.10;;;;;;5022271;28;20294;-77
2022/11/02 07:56:10;;;;;;;22.63;4.93;;;10.90;88.10;;;;;;5023552;28;20107;-77
2022/11/02 07:58:36;;;;;;;18.60;4.43;;;10.90;88.30;;;;;;5016096;28;20045;-76
2022/11/02 08:01:02;;;;;;;20.92;4.20;;;10.90;88.20;;;;;;5022790;28;20038;-77
2022/11/02 08:03:28;;;;;;;19.00;4.47;;;10.90;88.20;;;;;;5019921;28;20069;-78
2022/11/02 08:05:54;;;;;;;21.27;4.72;;;11.00;88.30;;;;;;5025626;28;20052;-76
2022/11/02 08:08:22;;;;;;;23.77;4.72;;;11.10;88.10;;;;;;5015079;28;20553;-78
2022/11/02 08:10:50;;;;;;;17.48;5.00;;;11.10;88.00;;;;;;5025662;28;20376;-76
2022/11/02 08:13:24;;;;;;;19.25;4.20;;;11.10;88.00;;;;;;5015275;28;20474;-77
2022/11/02 08:15:54;;;;;;;19.20;4.75;;;11.10;87.90;;;;;;5022079;28;20116;-76
2022/11/02 08:18:24;;;;;;;21.17;5.10;;;11.20;87.90;;;;;;5023759;28;20048;-76
2022/11/02 08:20:50;;;;;;;22.77;4.88;;;11.30;87.80;;;;;;5021400;28;20034;-75
2022/11/02 08:23:18;;;;;;;22.17;5.25;;;11.40;87.70;;;;;;5021607;28;20100;-76
2022/11/02 08:25:45;;;;;;;23.90;5.03;;;11.40;87.50;;;;;;5021541;28;20091;-76
2022/11/02 08:28:13;;;;;;;24.02;4.82;;;11.60;87.10;;;;;;5018613;28;20036;-76
2022/11/02 08:30:39;;;;;;;27.48;5.38;;;11.70;86.90;;;;;;5017862;28;20041;-75
2022/11/02 08:33:09;;;;;;;20.10;4.25;;;11.80;86.30;;;;;;5019347;28;20567;-76
2022/11/02 08:35:36;;;;;;;20.95;4.75;;;12.00;85.90;;;;;;5019655;28;20029;-76
2022/11/02 08:38:02;;;;;;;22.67;4.68;;;12.20;85.50;;;;;;5017845;28;20065;-77
2022/11/02 08:40:28;;;;;;;25.63;5.18;;;12.30;84.80;;;;;;5018343;28;20128;-76
2022/11/02 08:43:02;;;;;;;21.83;5.40;;;12.30;84.90;;;;;;5016310;28;20075;-78
2022/11/02 08:45:30;;;;;;;19.00;4.63;;;12.30;84.90;;;;;;5016708;28;20112;-76
2022/11/02 08:47:55;;;;;;;21.02;4.10;;;12.10;85.10;;;;;;5010575;28;20026;-76
2022/11/02 08:50:22;;;;;;;30.83;4.85;;;12.10;84.90;;;;;;5013393;28;20049;-77
2022/11/02 08:52:48;;;;;;;24.83;5.05;;;11.90;85.30;;;;;;5013954;28;20072;-76
2022/11/02 08:55:14;;;;;;;17.15;4.72;;;12.00;85.60;;;;;;5020287;28;20069;-76
2022/11/02 08:57:52;;;;;;;26.02;6.30;;;12.10;85.80;;;;;;5020091;28;20498;-77
2022/11/02 09:00:21;;;;;;;19.73;4.38;;;12.30;85.20;;;;;;5011148;28;20366;-78
2022/11/02 09:03:04;;;;;;;18.85;4.65;;;12.60;84.60;;;;;;5016439;28;20038;-76
2022/11/02 09:05:32;;;;;;;22.17;4.07;;;12.70;83.80;;;;;;5019401;28;20025;-76
2022/11/02 09:08:00;;;;;;;24.13;5.32;;;12.80;82.90;;;;;;5016003;28;20038;-76
2022/11/02 09:10:28;;;;;;;18.70;4.00;;;13.00;83.10;;;;;;5018506;28;20083;-76
2022/11/02 09:12:54;;;;;;;20.65;4.90;;;13.10;82.20;;;;;;5021869;28;20048;-78
2022/11/02 09:15:20;;;;;;;21.88;5.82;;;13.30;81.60;;;;;;5019913;28;20038;-76
2022/11/02 09:17:47;;;;;;;21.17;4.35;;;13.30;80.80;;;;;;5019459;28;20045;-76
2022/11/02 09:20:14;;;;;;;17.20;3.90;;;13.40;80.60;;;;;;5018933;28;20197;-77
2022/11/02 09:22:40;;;;;;;21.85;4.97;;;13.50;80.40;;;;;;5017266;28;20056;-76
2022/11/02 09:25:06;;;;;;;25.75;5.05;;;13.50;79.80;;;;;;5018712;28;20469;-77
2022/11/02 09:27:32;;;;;;;21.25;4.90;;;13.60;79.50;;;;;;5018310;28;20028;-76
2022/11/02 09:29:57;;;;;;;21.63;4.43;;;13.60;79.20;;;;;;5016597;28;20037;-76
2022/11/02 09:32:23;;;;;;;22.45;5.22;;;13.80;79.30;;;;;;5017256;28;20037;-74
2022/11/02 09:34:49;;;;;;;22.40;5.10;;;13.80;78.60;;;;;;5015209;28;20108;-75
2022/11/02 09:37:15;;;;;;;17.33;4.40;;;13.90;78.80;;;;;;5014249;28;20033;-73
2022/11/02 09:39:41;;;;;;;14.75;4.00;;;13.90;78.20;;;;;;5015480;28;20492;-76
2022/11/02 09:42:21;;;;;;;22.63;4.45;;;14.10;78.40;;;;;;5017291;28;20045;-75
2022/11/02 09:44:58;;;;;;;22.75;4.35;;;14.30;77.40;;;;;;5022638;28;20037;-76
2022/11/02 09:47:26;;;;;;;22.20;4.20;;;14.30;77.10;;;;;;5022210;28;20389;-76
2022/11/02 09:49:55;;;;;;;21.23;4.20;;;14.40;77.20;;;;;;5023843;28;20129;-78
2022/11/02 09:52:29;;;;;;;20.15;4.30;;;14.60;76.60;;;;;;5026748;28;20037;-76
2022/11/02 09:54:56;;;;;;;21.63;4.45;;;14.50;75.90;;;;;;5018947;28;20084;-76
2022/11/02 09:57:30;;;;;;;17.38;4.15;;;14.30;75.90;;;;;;5022904;28;20048;-77
2022/11/02 09:59:57;;;;;;;19.95;4.43;;;14.10;76.90;;;;;;5027782;28;20422;-79
2022/11/02 10:03:07;;;;;;;20.55;5.55;;;14.10;77.80;;;;;;5022526;28;20567;-78
2022/11/02 10:06:18;;;;;;;18.33;4.78;;;14.10;76.90;;;;;;5022012;28;20036;-77
2022/11/02 10:09:05;;;;;;;20.30;4.40;;;14.10;77.30;;;;;;5023625;28;20036;-77
2022/11/02 10:11:55;;;;;;;23.83;4.43;;;14.30;77.20;;;;;;5022819;28;20080;-76
2022/11/02 10:14:34;;;;;;;20.10;4.65;;;14.40;76.50;;;;;;5024360;28;20112;-75
2022/11/02 10:17:05;;;;;;;18.38;4.00;;;14.40;76.40;;;;;;5022943;28;20394;-76
2022/11/02 10:19:33;;;;;;;17.50;4.45;;;14.40;75.70;;;;;;5022117;28;20049;-77
2022/11/02 10:21:59;;;;;;;22.85;4.25;;;14.40;75.70;;;;;;5024270;28;20100;-77
2022/11/02 10:24:37;;;;;;;20.60;4.25;;;14.50;76.10;;;;;;5028074;28;20424;-76
2022/11/02 10:27:15;;;;;;;18.10;4.00;;;14.60;75.70;;;;;;5022214;28;20037;-77
2022/11/02 10:30:06;;;;;;;22.85;4.82;;;14.60;75.20;;;;;;5022448;28;20044;-77
2022/11/02 10:32:35;;;;;;;18.08;4.03;;;14.60;75.00;;;;;;5021163;28;20137;-76
2022/11/02 10:35:03;;;;;;;21.05;4.05;;;14.60;75.40;;;;;;5025399;28;20116;-76
2022/11/02 10:37:46;;;;;;;20.27;4.43;;;14.70;74.70;;;;;;5020012;28;20045;-76
2022/11/02 10:40:38;;;;;;;21.92;4.03;;;14.60;74.80;;;;;;5017551;28;20045;-75
2022/11/02 10:43:19;;;;;;;21.35;5.25;;;14.70;74.30;;;;;;5020711;28;20133;-75
2022/11/02 10:46:01;;;;;;;17.48;4.05;;;14.80;74.60;;;;;;5017520;28;20041;-76
2022/11/02 10:48:38;;;;;;;16.83;4.13;;;14.70;74.30;;;;;;5018438;28;20041;-76
2022/11/02 10:51:16;;;;;;;15.52;4.50;;;14.80;74.00;;;;;;5017457;28;20124;-78
2022/11/02 10:53:44;;;;;;;20.83;4.90;;;14.90;73.90;;;;;;5019544;28;20069;-76
2022/11/02 10:56:21;;;;;;;17.00;4.40;;;15.00;74.20;;;;;;5016530;28;20094;-74
2022/11/02 10:59:07;;;;;;;20.02;4.40;;;15.20;73.30;;;;;;5023044;28;20196;-78
2022/11/02 11:01:33;;;;;;;17.05;3.50;;;15.40;72.80;;;;;;5021066;28;20840;-80
2022/11/02 11:04:04;;;;;;;19.25;4.50;;;15.50;71.40;;;;;;5025838;28;20055;-79
2022/11/02 11:06:37;;;;;;;15.07;3.45;;;15.50;71.00;;;;;;5018777;28;20405;-79
2022/11/02 11:09:06;;;;;;;17.33;4.50;;;15.60;70.90;;;;;;5013516;28;20568;-79
2022/11/02 11:11:35;;;;;;;19.45;4.15;;;15.70;70.50;;;;;;5023340;28;20481;-79
2022/11/02 11:14:16;;;;;;;22.55;4.03;;;15.70;70.00;;;;;;5019803;28;20044;-81
2022/11/02 11:16:43;;;;;;;19.38;3.85;;;15.70;69.80;;;;;;5018553;28;20038;-79
2022/11/02 11:19:24;;;;;;;17.25;3.53;;;15.80;70.30;;;;;;5024084;28;20037;-78
2022/11/02 11:21:49;;;;;;;22.60;4.43;;;15.80;70.20;;;;;;5026610;28;20517;-79
2022/11/02 11:24:33;;;;;;;12.27;3.35;;;15.80;69.50;;;;;;5019635;28;20373;-79
2022/11/02 11:27:05;;;;;;;17.48;3.80;;;15.70;69.20;;;;;;5022288;28;20052;-78
2022/11/02 11:29:33;;;;;;;18.13;4.10;;;15.70;69.40;;;;;;5020241;28;20041;-78
2022/11/02 11:32:01;;;;;;;17.40;3.72;;;15.70;68.90;;;;;;5011243;28;20072;-79
2022/11/02 11:34:30;;;;;;;18.45;4.18;;;15.70;69.10;;;;;;5011830;28;20041;-79
2022/11/02 11:37:15;;;;;;;15.38;3.90;;;15.70;69.80;;;;;;5009680;28;20454;-77
2022/11/02 11:39:45;;;;;;;16.08;3.63;;;15.80;70.30;;;;;;5025208;28;20044;-81
2022/11/02 11:42:33;;;;;;;18.77;4.28;;;16.00;70.10;;;;;;4979648;28;20081;-80
2022/11/02 11:45:16;;;;;;;16.45;3.58;;;16.10;69.20;;;;;;5014162;28;20037;-77
2022/11/02 11:47:42;;;;;;;16.02;3.65;;;16.00;68.00;;;;;;5011198;28;20022;-77
2022/11/02 11:50:16;;;;;;;16.52;4.25;;;16.00;67.30;;;;;;5009494;28;20041;-79
2022/11/02 11:52:42;;;;;;;17.45;3.67;;;16.00;67.50;;;;;;5009228;28;20037;-78
2022/11/02 11:55:23;;;;;;;14.05;3.80;;;16.00;67.20;;;;;;5006783;28;20437;-78
2022/11/02 11:58:23;;;;;;;17.58;3.78;;;16.00;67.20;;;;;;5008400;28;20095;-78
2022/11/02 12:01:11;;;;;;;18.00;3.50;;;16.10;66.70;;;;;;5014002;28;20096;-80
2022/11/02 12:03:55;;;;;;;15.48;3.42;;;16.10;67.80;;;;;;5007603;28;20050;-76
2022/11/02 12:06:37;;;;;;;18.58;3.67;;;16.10;67.20;;;;;;5010103;28;20060;-79
2022/11/02 12:09:32;;;;;;;13.13;3.53;;;16.00;67.30;;;;;;5011559;28;20068;-80
2022/11/02 12:12:25;;;;;;;15.57;3.38;;;16.10;67.20;;;;;;5008476;28;20034;-79
2022/11/02 12:14:53;;;;;;;18.65;3.80;;;16.10;66.40;;;;;;5007389;28;20656;-79
2022/11/02 12:17:34;;;;;;;18.58;3.67;;;16.20;67.20;;;;;;5011444;28;20046;-79
2022/11/02 12:20:30;;;;;;;18.45;4.00;;;16.20;65.40;;;;;;5009662;28;20044;-80
2022/11/02 12:23:34;;;;;;;16.75;3.45;;;16.20;66.50;;;;;;5009081;28;20052;-79
2022/11/02 12:26:28;;;;;;;16.55;3.10;;;16.10;66.20;;;;;;5007872;28;20682;-79
2022/11/02 12:29:06;;;;;;;17.48;4.10;;;16.10;66.70;;;;;;5008520;28;20500;-80
2022/11/02 12:31:40;;;;;;;15.90;3.80;;;16.10;66.00;;;;;;5001849;28;20045;-80
2022/11/02 12:34:24;;;;;;;17.90;3.58;;;16.00;65.90;;;;;;5006707;28;20073;-76
2022/11/02 12:36:53;;;;;;;13.37;3.07;;;16.10;65.60;;;;;;5017147;28;20049;-80
2022/11/02 12:39:28;;;;;;;12.98;3.20;;;16.10;64.90;;;;;;5020299;28;20304;-80
2022/11/02 12:42:12;;;;;;;14.55;4.10;;;16.20;64.80;;;;;;5016947;28;20115;-81
2022/11/02 12:44:41;;;;;;;14.82;3.05;;;16.20;65.50;;;;;;5013753;28;20095;-79
2022/11/02 12:47:43;;;;;;;10.35;2.75;;;16.10;64.20;;;;;;5016348;28;20041;-79
2022/11/02 12:50:17;;;;;;;15.50;3.50;;;16.00;64.50;;;;;;4997757;28;20093;-78
2022/11/02 12:53:14;;;;;;;17.15;3.63;;;15.90;64.50;;;;;;5016289;28;20073;-78
2022/11/02 12:55:45;;;;;;;11.90;2.85;;;15.90;65.20;;;;;;5017242;28;20056;-78
2022/11/02 12:58:26;;;;;;;14.50;2.83;;;15.90;64.40;;;;;;5017470;28;20116;-79
2022/11/02 13:01:30;;;;;;;23.02;3.63;;;15.80;64.60;;;;;;5012031;28;20037;-80
2022/11/02 13:04:08;;;;;;;31.90;4.00;;;15.80;65.10;;;;;;5019444;28;20179;-75
2022/11/02 13:07:05;;;;;;;20.67;3.38;;;15.70;65.50;;;;;;5012917;28;20040;-79
2022/11/02 13:09:37;;;;;;;14.23;3.08;;;15.70;66.00;;;;;;5020532;28;20131;-78
2022/11/02 13:12:06;;;;;;;12.38;3.28;;;15.80;66.10;;;;;;5017315;28;20116;-78
2022/11/02 13:14:49;;;;;;;18.67;3.60;;;15.90;65.50;;;;;;5008496;28;20037;-79
2022/11/02 13:17:44;;;;;;;15.20;3.00;;;15.70;64.80;;;;;;5022735;28;20466;-80